createdAt,value
2023-06-15T00:00:14.585Z,14.73
2023-06-15T00:02:43.641Z,14.57
2023-06-15T00:05:12.733Z,14.39
2023-06-15T00:07:40.270Z,14.14
2023-06-15T00:10:09.088Z,14.05
2023-06-15T00:12:36.799Z,14.02
2023-06-15T00:15:04.854Z,14.04
2023-06-15T00:17:33.006Z,14.00
2023-06-15T00:20:01.678Z,13.89
2023-06-15T00:22:30.720Z,13.82
2023-06-15T00:24:58.268Z,13.77
2023-06-15T00:27:25.790Z,13.64
2023-06-15T00:29:53.432Z,13.71
2023-06-15T00:32:21.088Z,13.65
2023-06-15T00:34:48.796Z,13.59
2023-06-15T00:37:16.365Z,13.70
2023-06-15T00:39:45.387Z,13.60
2023-06-15T00:42:12.964Z,13.59
2023-06-15T00:44:40.530Z,13.56
2023-06-15T00:47:13.937Z,13.53
2023-06-15T00:49:45.811Z,13.69
2023-06-15T00:52:14.399Z,13.62
2023-06-15T00:54:44.453Z,13.52
2023-06-15T00:57:13.871Z,13.46
2023-06-15T00:59:41.900Z,13.41
2023-06-15T01:02:13.583Z,13.36
2023-06-15T01:04:41.632Z,13.32
2023-06-15T01:07:11.710Z,13.31
2023-06-15T01:09:42.356Z,13.25
2023-06-15T01:12:13.785Z,13.20
2023-06-15T01:14:41.610Z,13.23
2023-06-15T01:17:11.183Z,13.35
2023-06-15T01:19:43.292Z,13.26
2023-06-15T01:22:17.846Z,13.46
2023-06-15T01:24:47.258Z,13.32
2023-06-15T01:27:16.208Z,13.25
2023-06-15T01:29:44.059Z,13.37
2023-06-15T01:32:11.647Z,13.15
2023-06-15T01:34:39.173Z,12.82
2023-06-15T01:37:07.569Z,12.70
2023-06-15T01:39:35.106Z,12.69
2023-06-15T01:42:03.320Z,12.65
2023-06-15T01:44:35.099Z,12.71
2023-06-15T01:47:02.782Z,12.61
2023-06-15T01:49:30.618Z,12.66
2023-06-15T01:51:58.174Z,12.61
2023-06-15T01:54:26.441Z,12.61
2023-06-15T01:56:54.353Z,12.65
2023-06-15T01:59:22.531Z,12.91
2023-06-15T02:01:51.505Z,12.78
2023-06-15T02:04:19.159Z,12.76
2023-06-15T02:06:48.414Z,12.62
2023-06-15T02:09:17.967Z,12.39
2023-06-15T02:11:46.470Z,12.18
2023-06-15T02:14:18.814Z,12.18
2023-06-15T02:16:51.339Z,12.04
2023-06-15T02:19:22.137Z,12.03
2023-06-15T02:21:50.425Z,12.00
2023-06-15T02:24:19.277Z,11.79
2023-06-15T02:26:47.629Z,11.76
2023-06-15T02:29:15.265Z,11.75
2023-06-15T02:31:42.809Z,11.72
2023-06-15T02:34:11.720Z,11.80
2023-06-15T02:36:40.588Z,11.82
2023-06-15T02:39:08.513Z,11.81
2023-06-15T02:41:36.275Z,11.73
2023-06-15T02:44:04.424Z,11.72
2023-06-15T02:46:33.542Z,11.71
2023-06-15T02:49:01.160Z,11.68
2023-06-15T02:51:32.216Z,11.73
2023-06-15T02:54:00.185Z,11.84
2023-06-15T02:56:30.402Z,11.67
2023-06-15T02:59:01.364Z,11.78
2023-06-15T03:01:39.815Z,11.73
2023-06-15T03:04:15.736Z,11.56
2023-06-15T03:06:50.820Z,11.55
2023-06-15T03:09:23.713Z,11.52
2023-06-15T03:11:52.416Z,11.63
2023-06-15T03:14:25.801Z,11.64
2023-06-15T03:16:55.503Z,11.69
2023-06-15T03:19:28.632Z,11.70
2023-06-15T03:21:58.703Z,11.65
2023-06-15T03:24:27.595Z,11.65
2023-06-15T03:26:58.451Z,11.77
2023-06-15T03:29:28.031Z,11.66
2023-06-15T03:31:55.732Z,11.68
2023-06-15T03:34:23.648Z,11.69
2023-06-15T03:36:52.605Z,11.57
2023-06-15T03:39:21.857Z,11.49
2023-06-15T03:41:49.650Z,11.44
2023-06-15T03:44:17.335Z,11.47
2023-06-15T03:46:50.363Z,11.39
2023-06-15T03:49:18.125Z,11.56
2023-06-15T03:51:46.640Z,11.56
2023-06-15T03:54:14.210Z,11.45
2023-06-15T03:56:43.219Z,11.47
2023-06-15T03:59:11.481Z,11.43
2023-06-15T04:01:39.954Z,11.28
2023-06-15T04:04:07.598Z,11.26
2023-06-15T04:06:37.004Z,11.38
2023-06-15T04:09:06.247Z,11.46
2023-06-15T04:11:34.032Z,11.37
2023-06-15T04:14:02.959Z,11.54
2023-06-15T04:16:30.826Z,11.63
2023-06-15T04:18:58.372Z,11.59
2023-06-15T04:21:26.008Z,11.67
2023-06-15T04:23:53.604Z,11.80
2023-06-15T04:26:21.329Z,11.76
2023-06-15T04:28:50.990Z,11.71
2023-06-15T04:31:22.870Z,11.64
2023-06-15T04:33:59.977Z,11.67
2023-06-15T04:36:32.188Z,11.67
2023-06-15T04:39:01.890Z,11.74
2023-06-15T04:41:31.035Z,11.79
2023-06-15T04:44:03.725Z,11.85
2023-06-15T04:46:33.450Z,11.82
2023-06-15T04:49:01.896Z,11.90
2023-06-15T04:51:31.382Z,11.81
2023-06-15T04:53:59.114Z,11.94
2023-06-15T04:56:27.380Z,12.00
2023-06-15T04:58:55.112Z,12.08
2023-06-15T05:01:23.073Z,12.19
2023-06-15T05:03:54.488Z,12.20
2023-06-15T05:06:22.241Z,12.10
2023-06-15T05:08:50.478Z,12.19
2023-06-15T05:11:18.117Z,12.17
2023-06-15T05:13:46.908Z,12.27
2023-06-15T05:16:15.096Z,12.42
2023-06-15T05:18:43.452Z,12.59
2023-06-15T05:21:13.410Z,12.65
2023-06-15T05:23:42.094Z,12.79
2023-06-15T05:26:25.446Z,12.84
2023-06-15T05:28:57.463Z,12.95
2023-06-15T05:31:25.882Z,13.12
2023-06-15T05:33:55.119Z,13.12
2023-06-15T05:36:34.454Z,13.18
2023-06-15T05:39:14.395Z,13.21
2023-06-15T05:41:43.543Z,13.18
2023-06-15T05:44:11.662Z,13.26
2023-06-15T05:46:39.293Z,13.38
2023-06-15T05:49:07.153Z,13.19
2023-06-15T05:51:36.073Z,13.34
2023-06-15T05:54:03.717Z,13.48
2023-06-15T05:56:32.144Z,13.58
2023-06-15T05:59:00.564Z,13.76
2023-06-15T06:01:28.150Z,13.72
2023-06-15T06:03:56.354Z,13.69
2023-06-15T06:06:26.769Z,13.84
2023-06-15T06:08:55.751Z,14.06
2023-06-15T06:11:23.312Z,14.15
2023-06-15T06:13:54.138Z,14.27
2023-06-15T06:16:21.752Z,14.37
2023-06-15T06:18:49.745Z,14.48
2023-06-15T06:21:17.537Z,14.44
2023-06-15T06:23:46.302Z,14.54
2023-06-15T06:26:15.512Z,14.59
2023-06-15T06:28:43.073Z,14.85
2023-06-15T06:31:10.800Z,15.04
2023-06-15T06:33:39.299Z,15.19
2023-06-15T06:36:09.392Z,15.31
2023-06-15T06:38:43.337Z,15.40
2023-06-15T06:41:22.700Z,15.54
2023-06-15T06:43:50.490Z,15.64
2023-06-15T06:46:18.017Z,15.75
2023-06-15T06:48:45.528Z,15.84
2023-06-15T06:51:13.098Z,16.06
2023-06-15T06:53:40.635Z,16.10
2023-06-15T06:56:08.168Z,16.26
2023-06-15T06:58:37.325Z,16.36
2023-06-15T07:01:04.871Z,16.52
2023-06-15T07:03:32.596Z,16.61
2023-06-15T07:06:00.952Z,16.80
2023-06-15T07:08:28.532Z,16.91
2023-06-15T07:10:56.117Z,17.10
2023-06-15T07:13:23.952Z,17.36
2023-06-15T07:15:55.420Z,17.52
2023-06-15T07:18:22.945Z,17.65
2023-06-15T07:20:54.481Z,17.83
2023-06-15T07:23:22.947Z,18.04
2023-06-15T07:25:50.593Z,17.91
2023-06-15T07:28:18.223Z,18.19
2023-06-15T07:30:47.261Z,18.38
2023-06-15T07:33:16.167Z,18.59
2023-06-15T07:35:43.923Z,18.79
2023-06-15T07:38:11.521Z,19.02
2023-06-15T07:40:39.400Z,19.26
2023-06-15T07:43:06.918Z,19.42
2023-06-15T07:45:34.631Z,19.51
2023-06-15T07:48:02.208Z,19.46
2023-06-15T07:50:31.198Z,19.39
2023-06-15T07:52:58.769Z,19.62
2023-06-15T07:55:26.314Z,19.91
2023-06-15T07:57:54.259Z,20.18
2023-06-15T08:00:22.847Z,20.41
2023-06-15T08:02:59.932Z,20.56
2023-06-15T08:05:27.564Z,20.79
2023-06-15T08:07:56.412Z,20.85
2023-06-15T08:10:24.733Z,21.01
2023-06-15T08:12:52.343Z,21.33
2023-06-15T08:15:19.908Z,21.54
2023-06-15T08:17:47.523Z,21.72
2023-06-15T08:20:17.042Z,21.88
2023-06-15T08:22:44.969Z,22.07
2023-06-15T08:25:13.932Z,22.23
2023-06-15T08:27:41.633Z,22.40
2023-06-15T08:30:10.793Z,22.03
2023-06-15T08:32:38.977Z,22.37
2023-06-15T08:35:08.045Z,22.66
2023-06-15T08:37:36.202Z,22.89
2023-06-15T08:40:07.370Z,23.04
2023-06-15T08:42:36.610Z,22.74
2023-06-15T08:45:06.987Z,23.14
2023-06-15T08:47:35.260Z,23.18
2023-06-15T08:50:05.086Z,23.18
2023-06-15T08:52:36.012Z,23.12
2023-06-15T08:55:04.805Z,23.03
2023-06-15T08:57:33.496Z,23.29
2023-06-15T09:00:02.360Z,23.24
2023-06-15T09:02:31.844Z,23.42
2023-06-15T09:04:59.468Z,23.60
2023-06-15T09:07:27.019Z,23.08
2023-06-15T09:10:13.294Z,23.49
2023-06-15T09:12:45.853Z,23.85
2023-06-15T09:15:20.159Z,23.53
2023-06-15T09:17:48.392Z,23.65
2023-06-15T09:20:16.683Z,23.81
2023-06-15T09:22:46.660Z,23.74
2023-06-15T09:25:17.397Z,23.86
2023-06-15T09:27:55.229Z,24.04
2023-06-15T09:30:24.885Z,24.01
2023-06-15T09:32:52.493Z,23.75
2023-06-15T09:35:20.057Z,24.08
2023-06-15T09:37:53.561Z,24.37
2023-06-15T09:40:21.313Z,24.46
2023-06-15T09:42:51.918Z,24.49
2023-06-15T09:45:19.485Z,24.75
2023-06-15T09:47:48.395Z,24.71
2023-06-15T09:50:16.300Z,24.46
2023-06-15T09:52:45.182Z,24.81
2023-06-15T09:55:12.990Z,24.91
2023-06-15T09:57:42.544Z,24.68
2023-06-15T10:00:13.452Z,24.46
2023-06-15T10:02:42.100Z,24.80
2023-06-15T10:05:15.164Z,24.90
2023-06-15T10:07:47.255Z,24.81
2023-06-15T10:10:15.856Z,24.76
2023-06-15T10:12:46.251Z,24.49
2023-06-15T10:15:17.570Z,24.40
2023-06-15T10:17:47.810Z,24.20
2023-06-15T10:20:19.386Z,23.97
2023-06-15T10:22:51.780Z,23.50
2023-06-15T10:25:19.284Z,23.38
2023-06-15T10:27:47.067Z,23.53
2023-06-15T10:30:19.986Z,23.34
2023-06-15T10:32:51.252Z,22.93
2023-06-15T10:35:26.201Z,23.18
2023-06-15T10:37:58.177Z,23.15
2023-06-15T10:40:26.734Z,23.14
2023-06-15T10:42:57.745Z,22.82
2023-06-15T10:45:29.821Z,22.87
2023-06-15T10:47:59.587Z,22.92
2023-06-15T10:50:29.224Z,22.89
2023-06-15T10:52:57.448Z,22.86
2023-06-15T10:55:26.180Z,22.78
2023-06-15T10:58:15.806Z,22.74
2023-06-15T11:00:43.790Z,22.72
2023-06-15T11:03:24.911Z,22.67
2023-06-15T11:06:04.485Z,22.74
2023-06-15T11:08:33.067Z,22.67
2023-06-15T11:11:00.906Z,22.76
2023-06-15T11:13:28.740Z,22.76
2023-06-15T11:16:12.310Z,22.89
2023-06-15T11:18:56.589Z,22.99
2023-06-15T11:21:28.942Z,23.23
2023-06-15T11:23:58.896Z,23.44
2023-06-15T11:26:30.707Z,23.69
2023-06-15T11:29:00.615Z,23.91
2023-06-15T11:31:29.442Z,24.15
2023-06-15T11:33:57.921Z,24.21
2023-06-15T11:36:26.987Z,24.39
2023-06-15T11:38:55.345Z,24.38
2023-06-15T11:41:22.938Z,24.38
2023-06-15T11:43:51.089Z,24.71
2023-06-15T11:46:21.659Z,24.71
2023-06-15T11:48:49.666Z,24.70
2023-06-15T11:51:18.389Z,24.45
2023-06-15T11:53:47.857Z,24.08
2023-06-15T11:56:16.679Z,24.17
2023-06-15T11:58:45.418Z,24.31
2023-06-15T12:01:15.420Z,24.33
2023-06-15T12:04:01.491Z,24.47
2023-06-15T12:06:31.752Z,24.56
2023-06-15T12:09:01.216Z,24.51
2023-06-15T12:11:28.783Z,24.47
2023-06-15T12:14:01.190Z,24.13
2023-06-15T12:16:30.167Z,24.05
2023-06-15T12:18:59.373Z,24.07
2023-06-15T12:21:30.776Z,24.20
2023-06-15T12:23:59.903Z,24.09
2023-06-15T12:26:32.899Z,23.93
2023-06-15T12:29:00.840Z,24.24
2023-06-15T12:31:35.145Z,24.42
2023-06-15T12:34:08.192Z,24.51
2023-06-15T12:36:36.041Z,24.78
2023-06-15T12:39:09.623Z,24.99
2023-06-15T12:41:39.920Z,25.21
2023-06-15T12:44:07.750Z,25.24
2023-06-15T12:46:37.208Z,25.15
2023-06-15T12:49:05.301Z,24.96
2023-06-15T12:51:32.879Z,25.02
2023-06-15T12:54:02.265Z,25.28
2023-06-15T12:56:31.356Z,25.27
2023-06-15T12:58:59.962Z,25.56
2023-06-15T13:01:27.501Z,25.81
2023-06-15T13:03:55.286Z,25.84
2023-06-15T13:06:23.045Z,25.87
2023-06-15T13:08:50.637Z,25.92
2023-06-15T13:11:18.176Z,25.86
2023-06-15T13:13:47.084Z,25.75
2023-06-15T13:16:14.666Z,25.62
2023-06-15T13:18:42.239Z,25.47
2023-06-15T13:21:09.795Z,25.36
2023-06-15T13:23:37.410Z,25.02
2023-06-15T13:26:04.960Z,25.00
2023-06-15T13:28:32.528Z,24.86
2023-06-15T13:31:01.379Z,24.90
2023-06-15T13:33:29.083Z,24.77
2023-06-15T13:35:58.426Z,25.02
2023-06-15T13:38:26.220Z,25.11
2023-06-15T13:40:53.789Z,25.23
2023-06-15T13:43:21.864Z,25.34
2023-06-15T13:45:49.563Z,25.37
2023-06-15T13:48:18.438Z,25.20
2023-06-15T13:50:46.200Z,25.23
2023-06-15T13:53:13.754Z,25.21
2023-06-15T13:55:43.360Z,24.85
2023-06-15T13:58:10.900Z,24.59
2023-06-15T14:00:39.254Z,24.77
2023-06-15T14:03:07.632Z,24.83
2023-06-15T14:05:36.777Z,24.96
2023-06-15T14:08:04.989Z,25.09
2023-06-15T14:10:32.816Z,24.84
2023-06-15T14:13:00.568Z,24.67
2023-06-15T14:15:28.110Z,24.92
2023-06-15T14:17:55.699Z,25.12
2023-06-15T14:20:23.667Z,25.22
2023-06-15T14:22:52.533Z,25.18
2023-06-15T14:25:20.113Z,25.11
2023-06-15T14:27:48.795Z,24.93
2023-06-15T14:30:17.431Z,24.62
2023-06-15T14:32:45.780Z,24.39
2023-06-15T14:35:13.384Z,24.42
2023-06-15T14:37:40.982Z,24.52
2023-06-15T14:40:10.521Z,24.55
2023-06-15T14:42:48.025Z,24.55
2023-06-15T14:45:15.977Z,24.68
2023-06-15T14:47:44.382Z,24.34
2023-06-15T14:50:12.141Z,24.37
2023-06-15T14:52:40.204Z,24.50
2023-06-15T14:55:07.988Z,24.70
2023-06-15T14:57:36.846Z,24.74
2023-06-15T15:00:07.336Z,24.75
2023-06-15T15:02:35.804Z,24.84
2023-06-15T15:05:03.815Z,24.91
2023-06-15T15:07:31.363Z,24.77
2023-06-15T15:09:59.714Z,24.84
2023-06-15T15:12:29.981Z,24.90
2023-06-15T15:14:58.922Z,24.65
2023-06-15T15:17:27.760Z,24.46
2023-06-15T15:19:55.426Z,24.15
2023-06-15T15:22:22.956Z,24.10
2023-06-15T15:24:50.734Z,24.10
2023-06-15T15:27:18.289Z,23.97
2023-06-15T15:29:45.830Z,23.97
2023-06-15T15:32:14.913Z,23.97
2023-06-15T15:34:42.537Z,23.89
2023-06-15T15:37:10.135Z,23.84
2023-06-15T15:39:37.669Z,23.83
2023-06-15T15:42:07.791Z,23.79
2023-06-15T15:44:35.340Z,23.91
2023-06-15T15:47:03.512Z,23.89
2023-06-15T15:49:32.547Z,23.90
2023-06-15T15:52:00.133Z,23.85
2023-06-15T15:54:27.770Z,23.77
2023-06-15T15:56:55.402Z,23.86
2023-06-15T15:59:23.005Z,23.91
2023-06-15T16:01:50.829Z,23.88
2023-06-15T16:04:18.487Z,23.81
2023-06-15T16:06:47.344Z,23.84
2023-06-15T16:09:14.991Z,23.89
2023-06-15T16:11:43.030Z,23.98
2023-06-15T16:14:10.670Z,23.94
2023-06-15T16:16:38.275Z,23.92
2023-06-15T16:19:05.976Z,23.83
2023-06-15T16:21:33.758Z,23.98
2023-06-15T16:24:02.669Z,24.02
2023-06-15T16:26:30.280Z,24.05
2023-06-15T16:28:58.377Z,23.99
2023-06-15T16:31:27.326Z,23.90
2023-06-15T16:33:54.910Z,23.91
2023-06-15T16:36:22.407Z,23.80
2023-06-15T16:38:51.525Z,23.70
2023-06-15T16:41:20.613Z,23.58
2023-06-15T16:43:48.334Z,23.52
2023-06-15T16:46:15.898Z,23.45
2023-06-15T16:48:43.504Z,23.28
2023-06-15T16:51:11.028Z,23.37
2023-06-15T16:53:38.528Z,23.33
2023-06-15T16:56:07.430Z,23.43
2023-06-15T16:58:36.289Z,23.52
2023-06-15T17:01:04.342Z,23.47
2023-06-15T17:03:32.595Z,23.47
2023-06-15T17:06:00.442Z,23.45
2023-06-15T17:08:27.970Z,23.34
2023-06-15T17:10:56.180Z,23.33
2023-06-15T17:13:23.722Z,23.39
2023-06-15T17:15:52.702Z,23.39
2023-06-15T17:18:20.319Z,23.32
2023-06-15T17:20:48.389Z,23.39
2023-06-15T17:23:15.899Z,23.30
2023-06-15T17:25:43.472Z,23.32
2023-06-15T17:28:13.776Z,23.27
2023-06-15T17:30:42.275Z,23.28
2023-06-15T17:33:13.464Z,23.16
2023-06-15T17:35:41.120Z,23.00
2023-06-15T17:38:11.185Z,23.00
2023-06-15T17:40:39.913Z,23.02
2023-06-15T17:43:07.569Z,23.04
2023-06-15T17:45:35.169Z,23.09
2023-06-15T17:48:03.000Z,23.10
2023-06-15T17:50:31.948Z,22.93
2023-06-15T17:52:59.494Z,22.88
2023-06-15T17:55:27.036Z,22.89
2023-06-15T17:57:54.746Z,22.93
2023-06-15T18:00:22.320Z,22.91
2023-06-15T18:02:50.026Z,22.86
2023-06-15T18:05:17.947Z,22.84
2023-06-15T18:07:47.044Z,22.86
2023-06-15T18:10:14.632Z,22.82
2023-06-15T18:12:42.191Z,22.79
2023-06-15T18:15:11.013Z,22.67
2023-06-15T18:17:38.614Z,22.60
2023-06-15T18:20:07.675Z,22.60
2023-06-15T18:22:38.787Z,22.57
2023-06-15T18:25:08.745Z,22.53
2023-06-15T18:27:36.421Z,22.56
2023-06-15T18:30:06.557Z,22.53
2023-06-15T18:32:35.528Z,22.53
2023-06-15T18:35:04.440Z,22.53
2023-06-15T18:37:32.326Z,22.52
2023-06-15T18:39:59.960Z,22.40
2023-06-15T18:42:28.811Z,22.36
2023-06-15T18:44:57.140Z,22.35
2023-06-15T18:47:26.218Z,22.32
2023-06-15T18:49:53.990Z,22.31
2023-06-15T18:52:21.909Z,22.27
2023-06-15T18:54:49.642Z,22.22
2023-06-15T18:57:18.199Z,22.15
2023-06-15T18:59:47.469Z,22.05
2023-06-15T19:02:17.081Z,22.01
2023-06-15T19:04:46.293Z,21.89
2023-06-15T19:07:14.151Z,21.80
2023-06-15T19:09:41.670Z,21.72
2023-06-15T19:12:11.535Z,21.69
2023-06-15T19:14:39.375Z,21.55
2023-06-15T19:17:09.620Z,21.45
2023-06-15T19:19:37.573Z,21.36
2023-06-15T19:22:05.884Z,21.29
2023-06-15T19:24:33.902Z,21.24
2023-06-15T19:27:01.564Z,21.04
2023-06-15T19:29:29.241Z,21.02
2023-06-15T19:31:56.858Z,20.98
2023-06-15T19:34:25.734Z,20.91
2023-06-15T19:36:55.423Z,20.83
2023-06-15T19:39:23.645Z,20.80
2023-06-15T19:41:51.850Z,20.81
2023-06-15T19:44:19.479Z,20.79
2023-06-15T19:46:47.126Z,20.74
2023-06-15T19:49:14.711Z,20.71
2023-06-15T19:51:43.869Z,20.73
2023-06-15T19:54:11.546Z,20.69
2023-06-15T19:56:41.453Z,20.67
2023-06-15T19:59:09.501Z,20.50
2023-06-15T20:01:37.100Z,20.40
2023-06-15T20:04:04.843Z,20.43
2023-06-15T20:06:32.429Z,20.36
2023-06-15T20:09:01.294Z,20.36
2023-06-15T20:11:28.916Z,20.38
2023-06-15T20:13:56.438Z,20.37
2023-06-15T20:16:24.016Z,20.34
2023-06-15T20:18:52.752Z,20.30
2023-06-15T20:21:21.746Z,20.28
2023-06-15T20:23:49.541Z,20.21
2023-06-15T20:26:18.436Z,20.17
2023-06-15T20:28:45.981Z,19.94
2023-06-15T20:31:14.037Z,19.82
2023-06-15T20:33:45.005Z,19.82
2023-06-15T20:36:12.896Z,19.83
2023-06-15T20:38:40.842Z,19.75
2023-06-15T20:41:08.403Z,19.77
2023-06-15T20:43:37.285Z,19.59
2023-06-15T20:46:04.816Z,19.21
2023-06-15T20:48:35.675Z,19.28
2023-06-15T20:51:06.076Z,19.46
2023-06-15T20:53:34.401Z,19.56
2023-06-15T20:56:05.100Z,19.47
2023-06-15T20:58:34.762Z,19.35
2023-06-15T21:01:04.174Z,18.97
2023-06-15T21:03:32.176Z,19.02
2023-06-15T21:06:01.496Z,18.98
2023-06-15T21:08:32.731Z,18.62
2023-06-15T21:11:00.690Z,18.70
2023-06-15T21:13:28.452Z,18.30
2023-06-15T21:15:56.211Z,18.12
2023-06-15T21:18:26.383Z,18.05
2023-06-15T21:20:53.968Z,17.95
2023-06-15T21:23:21.501Z,17.83
2023-06-15T21:25:50.270Z,17.71
2023-06-15T21:28:17.909Z,17.66
2023-06-15T21:30:45.487Z,17.40
2023-06-15T21:33:13.049Z,17.40
2023-06-15T21:35:41.920Z,17.57
2023-06-15T21:38:09.456Z,17.57
2023-06-15T21:40:37.024Z,17.65
2023-06-15T21:43:04.814Z,17.76
2023-06-15T21:45:32.362Z,17.72
2023-06-15T21:47:59.915Z,17.79
2023-06-15T21:50:27.713Z,17.42
2023-06-15T21:52:59.169Z,17.43
2023-06-15T21:55:28.712Z,17.24
2023-06-15T21:57:56.513Z,17.09
2023-06-15T22:00:24.536Z,16.83
2023-06-15T22:02:53.744Z,16.72
2023-06-15T22:05:21.958Z,16.63
2023-06-15T22:07:50.457Z,16.51
2023-06-15T22:10:19.812Z,16.51
2023-06-15T22:12:48.285Z,16.45
2023-06-15T22:15:16.056Z,16.35
2023-06-15T22:17:44.366Z,16.33
2023-06-15T22:20:14.962Z,16.53
2023-06-15T22:22:42.651Z,16.41
2023-06-15T22:25:10.830Z,16.08
2023-06-15T22:27:39.792Z,16.35
2023-06-15T22:30:08.792Z,15.95
2023-06-15T22:32:36.550Z,15.94
2023-06-15T22:35:04.856Z,15.57
2023-06-15T22:37:32.445Z,15.63
2023-06-15T22:39:59.944Z,16.03
2023-06-15T22:42:29.143Z,16.04
2023-06-15T22:44:58.293Z,15.99
2023-06-15T22:47:26.989Z,16.07
2023-06-15T22:49:54.668Z,16.00
2023-06-15T22:52:23.183Z,15.94
2023-06-15T22:54:51.042Z,15.70
2023-06-15T22:57:19.070Z,15.54
2023-06-15T22:59:46.638Z,15.54
2023-06-15T23:02:17.474Z,15.48
2023-06-15T23:04:45.238Z,15.49
2023-06-15T23:07:13.080Z,15.66
2023-06-15T23:09:40.771Z,15.51
2023-06-15T23:12:12.609Z,15.40
2023-06-15T23:14:41.302Z,15.22
2023-06-15T23:17:09.011Z,15.29
2023-06-15T23:19:38.335Z,15.18
2023-06-15T23:22:06.978Z,14.90
2023-06-15T23:24:34.764Z,15.07
2023-06-15T23:27:03.995Z,14.96
2023-06-15T23:29:36.261Z,14.89
2023-06-15T23:32:03.793Z,14.94
2023-06-15T23:34:31.444Z,14.85
2023-06-15T23:37:00.490Z,14.77
2023-06-15T23:39:27.992Z,14.88
2023-06-15T23:41:55.547Z,14.82
2023-06-15T23:44:23.113Z,14.88
2023-06-15T23:46:51.166Z,14.97
2023-06-15T23:49:19.038Z,14.68
2023-06-15T23:51:46.594Z,14.73
2023-06-15T23:54:15.453Z,14.82
2023-06-15T23:56:43.085Z,14.85
2023-06-15T23:59:12.658Z,14.91
